Latest Weather Observations for Busselton Jetty

IDW60801

Issued at 9:12 pm WST Sunday 16 June 2024 (issued every 10 minutes, with the page automatically refreshed every 10 minutes)

About weather observations | Map of weather stations | Latest weather observations for WA | Other Formats
Station Details ID: 009937 Name: BUSSELTON JETTY Lat: -33.63 Lon: 115.34 Height: 3.0 m
Data from the previous 72 hours. | See also: Recent months at Busselton Jetty
Date/Time
WST
Temp
°C
App
Temp
°C
Dew
Point
°C
Rel
Hum
%
Delta-T
°C
Wind Press
QNH
hPa
Press
MSL
hPa
Rain since
9am
mm
Dir  Spd
km/h
Gust
km/h
Spd
kts
Gust
kts
16/09:00pm - - - - - SW 15 17 8 9 - - -
16/08:30pm - - - - - SSW 9 9 5 5 - - -
16/08:00pm - - - - - SW 7 9 4 5 - - -
16/07:30pm - - - - - SW 9 11 5 6 - - -
16/07:00pm - - - - - SW 11 13 6 7 - - -
16/06:30pm - - - - - SW 11 13 6 7 - - -
16/06:00pm - - - - - SW 13 15 7 8 - - -
16/05:30pm - - - - - SW 15 19 8 10 - - -
16/05:00pm - - - - - SW 11 20 6 11 - - -
16/04:30pm - - - - - SW 13 15 7 8 - - -
16/04:00pm - - - - - SSW 19 24 10 13 - - -
16/03:30pm - - - - - SW 30 33 16 18 - - -
16/03:00pm - - - - - WSW 22 33 12 18 - - -
16/02:30pm - - - - - W 24 28 13 15 - - -
16/02:00pm - - - - - WSW 24 32 13 17 - - -
16/01:30pm - - - - - W 13 15 7 8 - - -
16/01:00pm - - - - - W 11 13 6 7 - - -
16/12:30pm - - - - - W 4 11 2 6 - - -
16/12:00pm - - - - - N 9 11 5 6 - - -
16/11:30am - - - - - N 2 7 1 4 - - -
16/11:00am - - - - - ESE 7 7 4 4 - - -
16/10:30am - - - - - ENE 7 9 4 5 - - -
16/10:00am - - - - - E 11 11 6 6 - - -
16/09:30am - - - - - E 9 11 5 6 - - -
16/09:00am - - - - - ESE 9 11 5 6 - - -
16/08:30am - - - - - E 11 13 6 7 - - -
16/08:00am - - - - - E 13 13 7 7 - - -
16/07:30am - - - - - E 15 17 8 9 - - -
16/07:00am - - - - - ENE 17 19 9 10 - - -
16/06:30am - - - - - ENE 13 15 7 8 - - -
16/06:00am - - - - - E 11 15 6 8 - - -
16/05:30am - - - - - S 4 9 2 5 - - -
16/05:00am - - - - - NNE 28 33 15 18 - - -
16/04:30am - - - - - NNE 22 30 12 16 - - -
16/04:00am - - - - - NNE 17 22 9 12 - - -
16/03:30am - - - - - NNE 22 26 12 14 - - -
16/03:00am - - - - - NNE 26 30 14 16 - - -
16/02:30am - - - - - NNE 19 24 10 13 - - -
16/02:00am - - - - - E 9 15 5 8 - - -
16/01:30am - - - - - N 17 20 9 11 - - -
16/01:00am - - - - - NNE 24 28 13 15 - - -
16/12:30am - - - - - N 22 26 12 14 - - -
16/12:00am - - - - - N 17 20 9 11 - - -
 
Date/Time
WST
Temp
°C
App
Temp
°C
Dew
Point
°C
Rel
Hum
%
Delta-T
°C
Wind Press
QNH
hPa
Press
MSL
hPa
Rain since
9am
mm
Dir  Spd
km/h
Gust
km/h
Spd
kts
Gust
kts
15/11:30pm - - - - - NNE 28 32 15 17 - - -
15/11:00pm - - - - - NNE 24 26 13 14 - - -
15/10:30pm - - - - - NE 17 22 9 12 - - -
15/10:00pm - - - - - NE 17 22 9 12 - - -
15/09:30pm - - - - - E 11 17 6 9 - - -
15/09:00pm - - - - - E 11 15 6 8 - - -
15/08:41pm - - - - - ESE 13 17 7 9 - - -
15/08:30pm - - - - - SE 11 13 6 7 - - -
15/08:13pm - - - - - SE 13 15 7 8 - - -
15/08:00pm - - - - - ENE 19 20 10 11 - - -
15/07:30pm - - - - - ESE 17 19 9 10 - - -
15/07:00pm - - - - - S 9 13 5 7 - - -
15/06:30pm - - - - - NE 22 26 12 14 - - -
15/06:00pm - - - - - NE 20 22 11 12 - - -
15/05:51pm - - - - - NE 19 22 10 12 - - -
15/05:41pm - - - - - NE 19 20 10 11 - - -
15/05:30pm - - - - - NE 19 20 10 11 - - -
15/05:09pm - - - - - NE 17 17 9 9 - - -
15/05:00pm - - - - - NNE 17 19 9 10 - - -
15/04:59pm - - - - - NNE 17 19 9 10 - - -
15/04:30pm - - - - - NNE 17 19 9 10 - - -
15/04:00pm - - - - - NNE 17 20 9 11 - - -
15/03:30pm - - - - - NNE 19 20 10 11 - - -
15/03:00pm - - - - - NNE 17 19 9 10 - - -
15/02:30pm - - - - - NNE 15 17 8 9 - - -
15/02:00pm - - - - - NE 17 19 9 10 - - -
15/01:30pm - - - - - NNE 19 22 10 12 - - -
15/01:00pm - - - - - NNE 17 20 9 11 - - -
15/12:30pm - - - - - NNE 15 17 8 9 - - -
15/12:00pm - - - - - NNE 17 22 9 12 - - -
15/11:30am - - - - - NE 19 22 10 12 - - -
15/11:00am - - - - - NE 20 26 11 14 - - -
15/10:30am - - - - - ENE 24 28 13 15 - - -
15/10:00am - - - - - NE 22 26 12 14 - - -
15/09:30am - - - - - NE 20 26 11 14 - - -
15/09:00am - - - - - ENE 19 24 10 13 - - -
15/08:30am - - - - - ENE 22 26 12 14 - - -
15/08:00am - - - - - E 17 19 9 10 - - -
15/07:30am - - - - - E 15 17 8 9 - - -
15/07:00am - - - - - E 17 20 9 11 - - -
15/06:30am - - - - - E 17 20 9 11 - - -
15/06:00am - - - - - E 15 19 8 10 - - -
15/05:30am - - - - - E 19 26 10 14 - - -
15/05:00am - - - - - ENE 24 28 13 15 - - -
15/04:30am - - - - - ENE 28 30 15 16 - - -
15/04:00am - - - - - ENE 26 28 14 15 - - -
15/03:30am - - - - - ENE 26 28 14 15 - - -
15/03:00am - - - - - ENE 20 26 11 14 - - -
15/02:30am - - - - - ENE 22 26 12 14 - - -
15/02:00am - - - - - E 19 20 10 11 - - -
15/01:30am - - - - - E 19 22 10 12 - - -
15/01:00am - - - - - ENE 17 20 9 11 - - -
15/12:30am - - - - - ENE 19 20 10 11 - - -
15/12:00am - - - - - ENE 20 26 11 14 - - -
 
Date/Time
WST
Temp
°C
App
Temp
°C
Dew
Point
°C
Rel
Hum
%
Delta-T
°C
Wind Press
QNH
hPa
Press
MSL
hPa
Rain since
9am
mm
Dir  Spd
km/h
Gust
km/h
Spd
kts
Gust
kts
14/11:30pm - - - - - ENE 19 24 10 13 - - -
14/11:00pm - - - - - E 17 19 9 10 - - -
14/10:30pm - - - - - E 17 19 9 10 - - -
14/10:00pm - - - - - ESE 15 17 8 9 - - -
14/09:30pm - - - - - E 15 19 8 10 - - -
14/09:00pm - - - - - ESE 13 15 7 8 - - -
14/08:30pm - - - - - ESE 13 15 7 8 - - -
14/08:00pm - - - - - ESE 13 15 7 8 - - -
14/07:30pm - - - - - ESE 11 13 6 7 - - -
14/07:00pm - - - - - ESE 11 13 6 7 - - -
14/06:30pm - - - - - E 9 11 5 6 - - -
14/06:00pm - - - - - NE 11 13 6 7 - - -
14/05:30pm - - - - - NNE 11 11 6 6 - - -
14/05:00pm - - - - - N 15 17 8 9 - - -
14/04:30pm - - - - - NNE 15 17 8 9 - - -
14/04:00pm - - - - - N 13 15 7 8 - - -
14/03:30pm - - - - - NNE 15 17 8 9 - - -
14/03:00pm - - - - - NNE 19 20 10 11 - - -
14/02:30pm - - - - - NE 20 22 11 12 - - -
14/02:00pm - - - - - NNE 17 20 9 11 - - -
14/01:30pm - - - - - NE 20 24 11 13 - - -
14/01:00pm - - - - - NE 20 26 11 14 - - -
14/12:30pm - - - - - NE 22 26 12 14 - - -
14/12:00pm - - - - - NE 20 24 11 13 - - -
14/11:30am - - - - - ENE 19 20 10 11 - - -
14/11:00am - - - - - ENE 17 19 9 10 - - -
14/10:30am - - - - - ENE 17 22 9 12 - - -
14/10:00am - - - - - ENE 19 24 10 13 - - -
14/09:30am - - - - - E 17 19 9 10 - - -
14/09:00am - - - - - E 19 20 10 11 - - -
14/08:30am - - - - - E 17 20 9 11 - - -
14/08:00am - - - - - ESE 15 19 8 10 - - -
14/07:30am - - - - - E 17 19 9 10 - - -
14/07:00am - - - - - E 19 22 10 12 - - -
14/06:30am - - - - - ESE 17 19 9 10 - - -
14/06:00am - - - - - E 15 19 8 10 - - -
14/05:30am - - - - - ENE 22 26 12 14 - - -
14/05:00am - - - - - ENE 22 26 12 14 - - -
14/04:30am - - - - - ENE 17 22 9 12 - - -
14/04:00am - - - - - E 13 17 7 9 - - -
14/03:30am - - - - - E 15 17 8 9 - - -
14/03:00am - - - - - ESE 11 13 6 7 - - -
14/02:30am - - - - - ESE 13 15 7 8 - - -
14/02:00am - - - - - E 13 15 7 8 - - -
14/01:30am - - - - - ESE 9 11 5 6 - - -
14/01:00am - - - - - E 13 15 7 8 - - -
14/12:30am - - - - - E 13 13 7 7 - - -
14/12:00am - - - - - E 11 13 6 7 - - -
 
Date/Time
WST
Temp
°C
App
Temp
°C
Dew
Point
°C
Rel
Hum
%
Delta-T
°C
Wind Press
QNH
hPa
Press
MSL
hPa
Rain since
9am
mm
Dir  Spd
km/h
Gust
km/h
Spd
kts
Gust
kts
13/11:30pm - - - - - E 13 13 7 7 - - -
13/11:00pm - - - - - ESE 13 13 7 7 - - -
13/10:30pm - - - - - SE 11 13 6 7 - - -
13/10:00pm - - - - - SE 13 15 7 8 - - -
13/09:30pm - - - - - ESE 13 13 7 7 - - -

Other formats

Comma delimited format used in spreadsheet applications
http://www.bom.gov.au/fwo/IDW60801/IDW60801.95602.axf

JavaScript Object Notation format (JSON) in row-major order
http://www.bom.gov.au/fwo/IDW60801/IDW60801.95602.json

Data quality

Most of these data are generated automatically and are frequently updated. Quality checks on data are not normally performed. It is possible for incorrect values to appear. Refer to information at About Latest Weather Observations and please check the disclaimer before using these data.